Time;durP1;ratioP1;P1;durP2;ratioP2;P2;SDS_P1;SDS_P2;PMS_P1;PMS_P2;Temp;Humidity;BMP_temperature;BMP_pressure;BME280_temperature;BME280_humidity;BME280_pressure;Samples;Min_cycle;Max_cycle;Signal;HPM_P1;HPM_P2
2022/04/02 00:01:15;;;;;;;33.40;17.38;;;0.90;97.00;;;;;;5007739;28;20467;-74
2022/04/02 00:03:41;;;;;;;32.88;16.60;;;0.90;96.90;;;;;;5002343;28;20217;-75
2022/04/02 00:06:07;;;;;;;34.10;16.40;;;0.90;96.80;;;;;;5009736;28;20738;-73
2022/04/02 00:08:34;;;;;;;33.93;17.43;;;1.00;96.80;;;;;;5001940;28;20428;-72
2022/04/02 00:11:00;;;;;;;33.08;16.90;;;0.90;96.70;;;;;;4995495;28;20187;-72
2022/04/02 00:13:26;;;;;;;38.53;18.67;;;0.90;96.70;;;;;;5025008;28;20264;-74
2022/04/02 00:15:52;;;;;;;36.70;17.10;;;1.00;96.80;;;;;;5022547;28;20193;-73
2022/04/02 00:18:18;;;;;;;36.43;19.30;;;1.00;96.90;;;;;;5000492;28;20341;-74
2022/04/02 00:20:44;;;;;;;35.70;18.13;;;1.10;96.80;;;;;;5012762;28;20424;-73
2022/04/02 00:25:54;;;;;;;31.38;16.92;;;1.10;96.40;;;;;;5009928;28;20252;-74
2022/04/02 00:28:20;;;;;;;34.77;16.87;;;1.10;96.30;;;;;;5011958;28;20181;-73
2022/04/02 00:30:46;;;;;;;36.67;17.30;;;1.10;96.10;;;;;;4986986;28;20189;-74
2022/04/02 00:33:12;;;;;;;38.30;18.90;;;1.10;96.10;;;;;;5006549;28;20880;-73
2022/04/02 00:35:38;;;;;;;37.40;18.65;;;1.00;96.00;;;;;;5003741;28;20186;-74
2022/04/02 00:38:04;;;;;;;39.40;18.23;;;1.10;96.10;;;;;;4996552;28;20186;-77
2022/04/02 00:40:30;;;;;;;40.90;19.50;;;1.10;96.10;;;;;;5000624;28;20424;-76
2022/04/02 00:42:56;;;;;;;36.87;17.63;;;1.10;96.10;;;;;;5003964;28;20548;-77
2022/04/02 00:45:21;;;;;;;36.67;17.50;;;1.10;96.20;;;;;;4998635;28;20187;-76
2022/04/02 00:47:47;;;;;;;36.23;18.60;;;1.20;96.30;;;;;;4996916;28;20236;-75
2022/04/02 00:50:13;;;;;;;34.13;17.97;;;1.20;96.20;;;;;;4998774;28;20590;-76
2022/04/02 00:52:39;;;;;;;30.90;16.30;;;1.30;96.30;;;;;;5001938;28;20586;-74
2022/04/02 00:55:06;;;;;;;36.70;18.25;;;1.30;96.00;;;;;;4996902;28;20425;-77
2022/04/02 00:57:33;;;;;;;32.28;16.38;;;1.20;95.80;;;;;;5000235;28;20259;-75
2022/04/02 00:59:58;;;;;;;35.42;18.50;;;1.20;95.90;;;;;;5001660;28;20696;-75
2022/04/02 01:02:24;;;;;;;30.60;16.90;;;1.20;95.90;;;;;;5008649;28;20233;-75
2022/04/02 01:04:50;;;;;;;33.33;17.17;;;1.30;96.00;;;;;;5009232;28;20271;-75
2022/04/02 01:07:18;;;;;;;31.97;16.60;;;1.30;96.00;;;;;;5010160;28;20198;-77
2022/04/02 01:09:44;;;;;;;32.65;15.98;;;1.20;95.70;;;;;;5012000;28;20216;-75
2022/04/02 01:12:10;;;;;;;34.73;16.63;;;1.20;95.50;;;;;;5011847;28;20288;-74
2022/04/02 01:14:36;;;;;;;35.90;17.83;;;1.20;95.60;;;;;;4993940;28;20269;-75
2022/04/02 01:17:04;;;;;;;37.72;17.73;;;1.20;95.80;;;;;;4993651;28;20288;-74
2022/04/02 01:19:30;;;;;;;31.30;16.10;;;1.20;95.80;;;;;;5012081;28;20188;-76
2022/04/02 01:21:55;;;;;;;31.10;16.00;;;1.10;95.80;;;;;;5014414;28;20190;-74
2022/04/02 01:24:21;;;;;;;32.47;16.50;;;1.20;96.00;;;;;;5014776;28;20452;-77
2022/04/02 01:26:47;;;;;;;34.53;17.40;;;1.20;95.80;;;;;;5007690;28;20185;-74
2022/04/02 01:29:13;;;;;;;29.10;16.65;;;1.20;95.70;;;;;;4996835;28;20201;-75
2022/04/02 01:31:43;;;;;;;36.10;17.50;;;1.20;95.80;;;;;;5012935;28;20190;-75
2022/04/02 01:34:09;;;;;;;33.63;18.02;;;1.30;96.00;;;;;;5012352;28;20312;-74
2022/04/02 01:36:35;;;;;;;31.10;16.60;;;1.30;96.10;;;;;;4993938;28;20209;-76
2022/04/02 01:39:01;;;;;;;41.90;18.50;;;1.40;96.00;;;;;;4994278;28;20189;-76
2022/04/02 01:41:26;;;;;;;31.43;16.00;;;1.30;95.60;;;;;;5009005;28;20193;-74
2022/04/02 01:43:52;;;;;;;33.33;16.03;;;1.30;95.50;;;;;;5014327;28;20452;-76
2022/04/02 01:46:18;;;;;;;36.50;16.50;;;1.30;95.50;;;;;;4996769;28;20192;-77
2022/04/02 01:48:45;;;;;;;31.15;16.70;;;1.40;95.50;;;;;;5007984;28;20561;-75
2022/04/02 01:51:11;;;;;;;28.88;15.27;;;1.50;95.30;;;;;;5007324;28;20898;-75
2022/04/02 01:53:37;;;;;;;26.20;15.07;;;1.40;95.10;;;;;;4997555;28;20272;-77
2022/04/02 01:56:03;;;;;;;30.90;15.57;;;1.50;95.20;;;;;;5011587;28;20452;-77
2022/04/02 01:58:29;;;;;;;33.95;16.20;;;1.50;95.20;;;;;;4997243;28;20189;-77
2022/04/02 02:00:56;;;;;;;32.73;17.63;;;1.50;95.00;;;;;;5014708;28;20189;-77
2022/04/02 02:03:22;;;;;;;27.98;16.02;;;1.40;94.90;;;;;;5015004;28;20805;-77
2022/04/02 02:05:47;;;;;;;31.30;15.73;;;1.20;94.80;;;;;;5017704;28;20178;-76
2022/04/02 02:08:13;;;;;;;33.97;15.60;;;1.20;95.10;;;;;;5014050;28;20264;-77
2022/04/02 02:10:39;;;;;;;32.63;15.57;;;1.30;95.40;;;;;;5008705;28;20273;-76
2022/04/02 02:13:05;;;;;;;31.57;16.30;;;1.20;95.20;;;;;;5006378;28;20224;-77
2022/04/02 02:15:31;;;;;;;27.17;14.15;;;1.30;95.40;;;;;;5013275;28;20190;-77
2022/04/02 02:17:56;;;;;;;33.40;16.73;;;1.30;95.50;;;;;;4994640;28;20653;-75
2022/04/02 02:20:22;;;;;;;31.67;16.17;;;1.30;95.50;;;;;;5012138;28;20269;-77
2022/04/02 02:22:51;;;;;;;28.60;16.10;;;1.30;95.20;;;;;;4990877;28;20261;-75
2022/04/02 02:25:18;;;;;;;28.75;14.25;;;1.40;95.40;;;;;;5001752;28;20469;-74
2022/04/02 02:27:45;;;;;;;28.48;15.65;;;1.40;95.00;;;;;;5010703;28;20194;-75
2022/04/02 02:30:13;;;;;;;27.70;15.70;;;1.30;94.90;;;;;;5010963;28;20222;-74
2022/04/02 02:32:39;;;;;;;27.52;15.68;;;1.30;94.80;;;;;;5011803;28;20205;-74
2022/04/02 02:38:01;;;;;;;30.55;15.23;;;1.30;94.80;;;;;;5011011;28;20236;-77
2022/04/02 02:40:27;;;;;;;25.77;14.45;;;1.30;94.90;;;;;;5005755;28;20185;-75
2022/04/02 02:42:52;;;;;;;30.73;14.60;;;1.40;95.00;;;;;;5008353;28;20514;-76
2022/04/02 02:45:18;;;;;;;29.70;14.63;;;1.40;95.00;;;;;;5004526;28;20183;-78
2022/04/02 02:47:44;;;;;;;27.40;13.63;;;1.40;95.00;;;;;;5011619;28;20270;-76
2022/04/02 02:50:09;;;;;;;28.17;14.40;;;1.40;94.90;;;;;;5010704;28;20667;-76
2022/04/02 02:52:35;;;;;;;27.10;14.53;;;1.50;95.00;;;;;;5007884;28;20233;-77
2022/04/02 02:55:01;;;;;;;28.53;13.80;;;1.40;94.50;;;;;;5012365;28;20280;-76
2022/04/02 02:57:27;;;;;;;24.03;13.43;;;1.30;94.40;;;;;;4985961;28;20186;-75
2022/04/02 02:59:52;;;;;;;22.60;12.73;;;1.20;94.70;;;;;;5006405;28;20178;-77
2022/04/02 03:02:18;;;;;;;26.77;13.23;;;1.20;94.90;;;;;;5012721;28;20227;-78
2022/04/02 03:04:44;;;;;;;26.03;13.53;;;1.30;95.00;;;;;;5012683;28;20686;-78
2022/04/02 03:07:09;;;;;;;26.97;13.47;;;1.40;95.20;;;;;;5013897;28;20269;-74
2022/04/02 03:09:35;;;;;;;25.77;13.30;;;1.40;95.10;;;;;;5014033;28;20316;-75
2022/04/02 03:12:01;;;;;;;24.00;13.50;;;1.50;95.10;;;;;;4996398;28;20182;-77
2022/04/02 03:14:26;;;;;;;28.77;13.00;;;1.50;94.80;;;;;;5015697;28;20217;-79
2022/04/02 03:16:52;;;;;;;22.93;11.77;;;1.50;94.60;;;;;;5027897;28;20198;-76
2022/04/02 03:19:18;;;;;;;24.90;12.90;;;1.50;94.70;;;;;;5019636;28;20194;-76
2022/04/02 03:21:43;;;;;;;24.80;11.60;;;1.40;94.30;;;;;;5010612;28;21246;-77
2022/04/02 03:24:10;;;;;;;22.07;12.33;;;1.40;94.40;;;;;;5018695;28;20213;-75
2022/04/02 03:26:37;;;;;;;22.65;11.85;;;1.30;94.30;;;;;;5022372;28;20265;-76
2022/04/02 03:29:03;;;;;;;24.88;13.57;;;1.30;94.40;;;;;;5023671;28;20190;-75
2022/04/02 03:31:28;;;;;;;26.10;11.87;;;1.30;94.60;;;;;;5015343;28;20185;-77
2022/04/02 03:33:54;;;;;;;23.90;12.40;;;1.20;94.60;;;;;;5011511;28;20210;-77
2022/04/02 03:36:20;;;;;;;24.57;12.70;;;1.20;94.80;;;;;;5003391;28;20722;-78
2022/04/02 03:38:46;;;;;;;28.87;13.50;;;1.30;95.40;;;;;;5027555;28;20173;-75
2022/04/02 03:41:13;;;;;;;23.73;12.13;;;1.30;95.50;;;;;;5030397;28;20186;-75
2022/04/02 03:43:38;;;;;;;22.80;12.13;;;1.20;95.60;;;;;;5014142;28;20225;-75
2022/04/02 03:48:48;;;;;;;21.92;12.85;;;1.10;95.90;;;;;;5011650;28;20208;-77
2022/04/02 03:51:14;;;;;;;25.33;12.80;;;1.10;96.10;;;;;;5011969;28;20268;-76
2022/04/02 03:53:40;;;;;;;28.20;12.87;;;1.00;96.10;;;;;;5011825;28;20243;-75
2022/04/02 03:56:07;;;;;;;27.63;12.73;;;1.00;96.30;;;;;;5012318;28;20196;-75
2022/04/02 03:58:32;;;;;;;30.85;12.55;;;1.00;96.30;;;;;;4992419;28;20181;-76
2022/04/02 04:00:58;;;;;;;21.33;12.00;;;0.90;96.10;;;;;;4993718;28;20244;-76
2022/04/02 04:03:24;;;;;;;27.07;11.70;;;0.80;96.10;;;;;;5011289;28;20510;-76
2022/04/02 04:05:50;;;;;;;23.20;10.90;;;0.90;96.40;;;;;;5006560;28;20178;-76
2022/04/02 04:08:15;;;;;;;23.23;11.87;;;0.90;96.40;;;;;;5016892;28;20193;-75
2022/04/02 04:10:41;;;;;;;23.77;12.07;;;0.90;96.50;;;;;;5021746;28;20960;-76
2022/04/02 04:13:07;;;;;;;31.37;9.73;;;0.90;96.40;;;;;;5022172;28;20218;-74
2022/04/02 04:15:33;;;;;;;22.47;10.60;;;1.00;96.40;;;;;;5002821;28;20495;-76
2022/04/02 04:17:59;;;;;;;23.50;10.30;;;1.00;96.20;;;;;;5020037;28;20181;-76
2022/04/02 04:20:25;;;;;;;25.73;9.93;;;1.00;96.00;;;;;;5003777;28;20478;-75
2022/04/02 04:22:52;;;;;;;19.77;10.60;;;0.90;95.60;;;;;;5022271;28;20182;-74
2022/04/02 04:25:17;;;;;;;22.83;10.20;;;0.90;95.50;;;;;;5022339;28;20197;-74
2022/04/02 04:27:43;;;;;;;24.50;11.37;;;0.90;95.40;;;;;;5020727;28;20185;-77
2022/04/02 04:30:10;;;;;;;19.90;9.47;;;0.90;95.50;;;;;;5014739;28;20897;-75
2022/04/02 04:32:35;;;;;;;22.77;10.10;;;1.00;95.60;;;;;;5018158;28;20216;-76
2022/04/02 04:35:02;;;;;;;20.93;10.97;;;0.90;95.60;;;;;;5018480;28;20205;-77
2022/04/02 04:37:28;;;;;;;20.42;10.05;;;0.90;95.90;;;;;;4995659;28;20189;-76
2022/04/02 04:39:54;;;;;;;26.27;10.93;;;0.90;96.20;;;;;;5010567;28;20193;-76
2022/04/02 04:42:21;;;;;;;25.63;11.33;;;0.80;96.40;;;;;;5015804;28;20499;-77
2022/04/02 04:44:47;;;;;;;25.30;10.80;;;0.80;96.80;;;;;;5011486;28;20679;-75
2022/04/02 04:47:13;;;;;;;29.63;12.30;;;0.90;97.10;;;;;;5005593;28;20197;-77
2022/04/02 04:49:39;;;;;;;31.92;13.80;;;0.80;97.30;;;;;;5001401;28;20263;-76
2022/04/02 04:52:05;;;;;;;27.10;12.77;;;0.90;97.60;;;;;;5005124;28;20224;-77
2022/04/02 04:54:31;;;;;;;26.55;13.07;;;0.80;97.70;;;;;;4991501;28;20478;-77
2022/04/02 04:56:57;;;;;;;24.73;12.57;;;0.70;97.90;;;;;;4989497;28;20633;-75
2022/04/02 04:59:22;;;;;;;28.30;14.10;;;0.70;98.10;;;;;;5012483;28;20186;-74
2022/04/02 05:01:48;;;;;;;25.37;13.40;;;0.60;98.10;;;;;;5014066;28;20589;-76
2022/04/02 05:04:14;;;;;;;23.77;12.67;;;0.60;98.10;;;;;;5000314;28;20206;-77
2022/04/02 05:06:41;;;;;;;27.23;14.27;;;0.50;98.00;;;;;;4996206;28;20569;-76
2022/04/02 05:09:07;;;;;;;27.15;13.80;;;0.50;98.10;;;;;;5013527;28;20225;-77
2022/04/02 05:11:33;;;;;;;27.58;13.85;;;0.50;98.40;;;;;;5014140;28;20558;-76
2022/04/02 05:13:59;;;;;;;28.83;13.77;;;0.50;98.40;;;;;;4990713;28;20218;-76
2022/04/02 05:16:26;;;;;;;33.53;15.07;;;0.40;98.40;;;;;;5011441;28;20201;-77
2022/04/02 05:18:52;;;;;;;23.30;13.18;;;0.30;98.20;;;;;;4996092;28;20177;-76
2022/04/02 05:21:18;;;;;;;32.22;14.13;;;0.40;98.40;;;;;;5013659;28;20186;-75
2022/04/02 05:23:44;;;;;;;30.25;13.80;;;0.40;98.50;;;;;;4996190;28;20264;-77
2022/04/02 05:26:10;;;;;;;23.17;12.40;;;0.50;98.50;;;;;;5013177;28;20186;-76
2022/04/02 05:28:39;;;;;;;33.07;13.97;;;0.50;98.50;;;;;;5006310;28;20432;-73
2022/04/02 05:31:04;;;;;;;28.70;14.40;;;0.50;98.50;;;;;;5013256;28;20218;-76
2022/04/02 05:33:30;;;;;;;26.13;12.13;;;0.60;98.40;;;;;;5013203;28;20256;-76
2022/04/02 05:35:57;;;;;;;25.80;13.50;;;0.50;98.20;;;;;;5013020;28;20178;-76
2022/04/02 05:38:23;;;;;;;23.15;12.55;;;0.50;98.00;;;;;;5013108;28;20185;-76
2022/04/02 05:40:49;;;;;;;24.70;12.80;;;0.40;97.80;;;;;;5013527;28;20182;-77
2022/04/02 05:43:15;;;;;;;24.17;12.60;;;0.50;97.80;;;;;;5013280;28;20284;-75
2022/04/02 05:45:41;;;;;;;21.97;12.90;;;0.50;98.20;;;;;;5016812;28;20421;-77
2022/04/02 05:48:07;;;;;;;19.90;11.33;;;0.60;98.30;;;;;;5009314;28;20198;-75
2022/04/02 05:50:32;;;;;;;22.48;11.80;;;0.60;98.00;;;;;;5018742;28;20423;-76
2022/04/02 05:53:00;;;;;;;25.50;12.50;;;0.50;97.70;;;;;;5013256;28;20214;-76
2022/04/02 05:55:26;;;;;;;21.65;11.82;;;0.40;97.60;;;;;;5013692;28;20190;-77
2022/04/02 05:57:52;;;;;;;25.13;12.65;;;0.40;97.80;;;;;;5013650;28;20671;-76
2022/04/02 06:00:18;;;;;;;23.63;12.98;;;0.40;97.90;;;;;;5018747;28;20712;-77
2022/04/02 06:02:45;;;;;;;21.97;11.90;;;0.50;98.00;;;;;;5014121;28;20209;-76
2022/04/02 06:05:13;;;;;;;23.52;12.95;;;0.50;98.00;;;;;;5022727;28;20528;-75
2022/04/02 06:07:40;;;;;;;21.83;11.35;;;0.50;98.10;;;;;;5009014;28;20198;-75
2022/04/02 06:10:06;;;;;;;24.55;12.85;;;0.40;97.90;;;;;;5025203;28;20664;-75
2022/04/02 06:12:32;;;;;;;23.70;12.63;;;0.50;97.90;;;;;;5007890;28;20213;-76
2022/04/02 06:14:59;;;;;;;26.33;12.93;;;0.60;98.00;;;;;;5027715;28;20208;-76
2022/04/02 06:17:25;;;;;;;23.30;13.27;;;0.50;97.90;;;;;;5023293;28;20198;-76
2022/04/02 06:19:52;;;;;;;22.77;12.25;;;0.60;97.90;;;;;;5011498;28;20201;-75
2022/04/02 06:22:18;;;;;;;21.50;11.23;;;0.60;97.90;;;;;;5016069;28;20566;-75
2022/04/02 06:24:44;;;;;;;24.30;11.55;;;0.60;97.90;;;;;;5017945;28;20631;-77
2022/04/02 06:27:10;;;;;;;22.10;11.68;;;0.70;98.00;;;;;;4998785;28;20558;-76
2022/04/02 06:29:36;;;;;;;20.33;11.83;;;0.80;97.70;;;;;;5014324;28;20186;-77
2022/04/02 06:32:02;;;;;;;20.57;11.03;;;0.80;97.50;;;;;;5012472;28;20229;-73
2022/04/02 06:34:27;;;;;;;23.47;12.03;;;0.80;96.90;;;;;;4994274;28;20642;-76
2022/04/02 06:36:54;;;;;;;19.70;10.40;;;0.70;96.80;;;;;;5005039;28;20421;-73
2022/04/02 06:39:20;;;;;;;18.88;10.15;;;0.80;96.80;;;;;;5009061;28;20182;-74
2022/04/02 06:41:46;;;;;;;19.73;10.68;;;0.70;96.60;;;;;;5004513;28;20589;-74
2022/04/02 06:44:11;;;;;;;18.00;10.03;;;0.80;96.80;;;;;;5005710;28;20217;-73
2022/04/02 06:46:38;;;;;;;20.33;10.70;;;0.80;96.90;;;;;;4999623;28;20194;-76
2022/04/02 06:49:04;;;;;;;21.23;11.15;;;0.90;96.90;;;;;;4987225;28;20247;-76
2022/04/02 06:51:30;;;;;;;19.35;10.50;;;0.80;96.50;;;;;;5010068;28;20193;-76
2022/04/02 06:53:56;;;;;;;17.20;9.57;;;0.80;96.50;;;;;;4994301;28;20210;-75
2022/04/02 06:56:21;;;;;;;16.90;10.00;;;0.80;96.50;;;;;;5008855;28;20197;-78
2022/04/02 06:58:47;;;;;;;17.27;9.30;;;0.90;96.50;;;;;;5013254;28;20178;-77
2022/04/02 07:01:13;;;;;;;16.27;9.23;;;1.00;96.40;;;;;;5014703;28;20559;-76
2022/04/02 07:03:39;;;;;;;17.67;10.00;;;1.00;96.10;;;;;;5013527;28;20210;-76
2022/04/02 07:06:04;;;;;;;17.67;9.90;;;0.90;96.20;;;;;;5013131;28;20192;-75
2022/04/02 07:08:30;;;;;;;17.40;8.67;;;1.00;96.30;;;;;;5012658;28;20182;-76
2022/04/02 07:10:57;;;;;;;14.23;9.07;;;1.00;96.10;;;;;;5008623;28;20196;-76
2022/04/02 07:13:25;;;;;;;13.25;9.45;;;1.10;96.10;;;;;;5009513;28;20484;-77
2022/04/02 07:15:51;;;;;;;15.98;9.60;;;1.20;96.40;;;;;;5008838;28;20841;-77
2022/04/02 07:18:17;;;;;;;17.40;9.43;;;1.30;96.20;;;;;;5009678;28;20196;-77
2022/04/02 07:20:44;;;;;;;17.63;10.02;;;1.20;96.00;;;;;;5010829;28;20197;-76
2022/04/02 07:23:10;;;;;;;17.48;9.52;;;1.30;95.90;;;;;;4991669;28;20571;-77
2022/04/02 07:25:38;;;;;;;18.10;8.73;;;1.20;95.60;;;;;;5002759;28;20273;-76
2022/04/02 07:28:05;;;;;;;19.27;9.35;;;1.10;95.50;;;;;;5001975;28;20201;-78
2022/04/02 07:30:32;;;;;;;16.35;9.27;;;1.00;95.50;;;;;;5007891;28;20411;-77
2022/04/02 07:32:58;;;;;;;19.08;10.48;;;0.90;95.80;;;;;;4998350;28;20279;-75
2022/04/02 07:35:25;;;;;;;17.67;9.80;;;0.90;96.20;;;;;;5015574;28;20190;-76
2022/04/02 07:38:12;;;;;;;17.60;8.75;;;0.90;96.20;;;;;;5014716;28;20417;-75
2022/04/02 07:40:46;;;;;;;17.90;10.65;;;0.90;96.40;;;;;;5000288;28;20178;-73
2022/04/02 07:43:20;;;;;;;22.55;9.82;;;0.90;96.30;;;;;;5012476;28;20201;-73
2022/04/02 07:45:56;;;;;;;22.67;10.52;;;1.00;96.20;;;;;;5013152;28;20676;-75
2022/04/02 07:48:24;;;;;;;17.60;9.23;;;1.00;96.10;;;;;;5006090;28;20194;-75
2022/04/02 07:50:51;;;;;;;23.25;11.00;;;0.80;96.00;;;;;;5015176;28;20573;-76
2022/04/02 07:53:32;;;;;;;21.23;11.20;;;0.80;96.30;;;;;;5005027;28;20598;-74
2022/04/02 07:56:03;;;;;;;16.40;8.63;;;0.80;96.50;;;;;;5003205;28;20174;-76
2022/04/02 07:58:31;;;;;;;19.15;8.75;;;0.70;96.40;;;;;;5005299;28;20212;-76
2022/04/02 08:01:00;;;;;;;15.30;8.45;;;0.50;96.20;;;;;;4989697;28;20190;-75
2022/04/02 08:03:28;;;;;;;17.58;8.98;;;0.50;96.50;;;;;;5006981;28;20649;-74
2022/04/02 08:05:55;;;;;;;16.35;8.98;;;0.50;96.70;;;;;;5002407;28;20289;-75
2022/04/02 08:08:24;;;;;;;21.17;10.27;;;0.60;96.80;;;;;;5003336;28;20586;-75
2022/04/02 08:10:54;;;;;;;15.48;7.97;;;0.70;96.70;;;;;;4989848;28;20182;-76
2022/04/02 08:13:22;;;;;;;14.77;8.90;;;0.70;96.50;;;;;;5007006;28;20304;-75
2022/04/02 08:15:51;;;;;;;19.73;9.98;;;0.60;96.30;;;;;;4999729;28;20233;-76
2022/04/02 08:18:22;;;;;;;22.48;9.48;;;0.70;96.30;;;;;;5001526;28;20194;-74
2022/04/02 08:20:50;;;;;;;17.98;9.27;;;0.60;96.20;;;;;;4998516;28;20297;-75
2022/04/02 08:23:17;;;;;;;15.55;8.80;;;0.60;96.10;;;;;;5001295;28;20213;-78
2022/04/02 08:26:04;;;;;;;17.27;8.15;;;0.70;96.30;;;;;;5003878;28;20196;-77
2022/04/02 08:28:56;;;;;;;21.45;8.98;;;0.60;95.80;;;;;;4983319;28;20186;-75
2022/04/02 08:31:25;;;;;;;25.38;8.90;;;0.70;96.00;;;;;;5001167;28;20833;-77
2022/04/02 08:34:04;;;;;;;24.95;9.07;;;0.50;95.40;;;;;;5001394;28;20224;-77
2022/04/02 08:36:49;;;;;;;14.73;8.60;;;0.60;95.50;;;;;;5005636;28;20177;-73
2022/04/02 08:39:47;;;;;;;20.98;8.93;;;0.60;95.70;;;;;;4989401;28;20266;-75
2022/04/02 08:42:36;;;;;;;18.25;9.35;;;0.50;95.00;;;;;;5004880;28;20268;-76
2022/04/02 08:45:13;;;;;;;18.90;9.48;;;0.40;95.50;;;;;;4998720;28;20210;-77
2022/04/02 08:48:11;;;;;;;20.73;9.98;;;0.40;95.90;;;;;;5000013;28;20369;-77
2022/04/02 08:51:01;;;;;;;17.77;8.88;;;0.50;95.90;;;;;;5002035;28;20189;-76
2022/04/02 08:53:49;;;;;;;16.98;8.60;;;0.60;95.70;;;;;;4984048;28;20336;-75
2022/04/02 08:56:24;;;;;;;16.52;8.30;;;0.60;95.30;;;;;;5002291;28;20174;-77
2022/04/02 08:59:06;;;;;;;18.30;9.50;;;0.60;95.10;;;;;;5009906;28;20182;-76
2022/04/02 09:02:03;;;;;;;23.90;11.05;;;0.50;94.80;;;;;;5009432;28;20667;-75
2022/04/02 09:05:07;;;;;;;16.45;8.90;;;0.60;95.50;;;;;;4998220;28;20256;-77
2022/04/02 09:07:47;;;;;;;20.17;8.77;;;0.70;95.40;;;;;;4968153;28;20269;-76
2022/04/02 09:10:32;;;;;;;22.75;10.18;;;0.80;95.30;;;;;;5001735;28;20399;-75
2022/04/02 09:13:15;;;;;;;22.38;10.40;;;0.80;94.90;;;;;;4985188;28;20209;-75
2022/04/02 09:16:00;;;;;;;21.30;10.30;;;0.60;95.20;;;;;;4997940;28;20194;-75
2022/04/02 09:18:26;;;;;;;19.20;10.10;;;0.80;95.80;;;;;;5003174;28;20252;-77
2022/04/02 09:21:08;;;;;;;17.63;9.70;;;0.90;95.90;;;;;;5008629;28;20661;-74
2022/04/02 09:23:42;;;;;;;18.10;9.80;;;0.90;94.90;;;;;;5001183;28;20198;-77
2022/04/02 09:26:25;;;;;;;22.55;9.10;;;0.80;94.30;;;;;;5006486;28;20221;-76
2022/04/02 09:29:02;;;;;;;21.48;10.43;;;0.70;94.40;;;;;;5002912;28;20184;-74
2022/04/02 09:31:51;;;;;;;23.80;11.10;;;0.70;94.90;;;;;;5002977;28;20657;-75
2022/04/02 09:34:19;;;;;;;22.67;11.77;;;0.70;95.10;;;;;;4970999;28;20383;-74
2022/04/02 09:37:33;;;;;;;20.05;10.52;;;0.70;94.90;;;;;;5003032;28;20182;-75
2022/04/02 09:40:04;;;;;;;18.08;10.45;;;0.70;94.80;;;;;;4940075;28;20197;-75
2022/04/02 09:42:43;;;;;;;24.52;11.65;;;0.70;94.90;;;;;;4951353;29;20667;-76
2022/04/02 09:45:20;;;;;;;23.58;10.88;;;0.60;94.40;;;;;;4949192;29;20223;-75
2022/04/02 09:48:15;;;;;;;22.83;10.80;;;0.60;94.00;;;;;;4948549;29;20194;-76
2022/04/02 09:50:42;;;;;;;22.23;11.60;;;0.50;94.30;;;;;;4945867;28;20220;-76
2022/04/02 09:53:15;;;;;;;26.63;11.75;;;0.80;94.50;;;;;;4952369;29;20220;-75
2022/04/02 09:56:01;;;;;;;17.98;9.65;;;0.80;94.00;;;;;;4950816;29;20176;-76
2022/04/02 09:58:48;;;;;;;19.42;10.95;;;0.70;93.80;;;;;;4943624;29;20203;-76
2022/04/02 10:01:27;;;;;;;31.60;10.55;;;0.60;93.50;;;;;;4945974;29;20254;-75
2022/04/02 10:04:30;;;;;;;19.58;10.27;;;0.50;93.70;;;;;;4950189;28;20220;-77
2022/04/02 10:06:58;;;;;;;18.63;10.75;;;0.70;94.00;;;;;;4941795;29;20206;-76
2022/04/02 10:09:31;;;;;;;21.60;10.60;;;0.70;93.80;;;;;;4950155;28;20188;-75
2022/04/02 10:12:02;;;;;;;17.30;10.05;;;0.70;93.40;;;;;;5000863;28;20214;-75
2022/04/02 10:14:29;;;;;;;15.90;9.63;;;0.90;93.60;;;;;;5013327;28;20238;-76
2022/04/02 10:17:06;;;;;;;21.42;10.25;;;0.90;93.50;;;;;;5013117;28;20206;-76
2022/04/02 10:19:34;;;;;;;19.77;10.68;;;1.00;93.50;;;;;;5004965;28;20178;-75
2022/04/02 10:22:10;;;;;;;21.92;11.00;;;1.10;93.30;;;;;;4990752;28;20703;-76
2022/04/02 10:24:47;;;;;;;17.42;9.98;;;1.00;92.90;;;;;;5012830;28;20332;-76
2022/04/02 10:27:30;;;;;;;27.27;11.88;;;1.00;93.00;;;;;;5003465;28;20244;-77
2022/04/02 10:30:09;;;;;;;19.20;10.07;;;0.90;92.90;;;;;;4989422;28;20684;-76
2022/04/02 10:32:51;;;;;;;26.63;11.73;;;0.70;93.10;;;;;;4989925;28;20182;-75
2022/04/02 10:35:18;;;;;;;22.65;10.88;;;0.90;93.70;;;;;;5015016;28;20182;-75
2022/04/02 10:37:54;;;;;;;23.52;12.02;;;1.00;93.90;;;;;;5017136;28;20178;-77
2022/04/02 10:40:24;;;;;;;20.67;10.70;;;1.00;93.90;;;;;;5017739;28;20189;-76
2022/04/02 10:42:52;;;;;;;23.88;12.20;;;1.10;93.90;;;;;;5021373;28;20421;-75
2022/04/02 10:45:20;;;;;;;20.35;10.65;;;0.90;93.00;;;;;;5013118;28;20193;-75
2022/04/02 10:47:48;;;;;;;24.73;11.98;;;0.90;93.30;;;;;;5022982;28;20205;-76
2022/04/02 10:50:18;;;;;;;16.98;9.95;;;0.90;93.30;;;;;;5024763;28;20182;-75
2022/04/02 10:52:47;;;;;;;25.77;11.30;;;1.00;93.30;;;;;;5018319;28;20213;-76
2022/04/02 10:55:17;;;;;;;23.98;10.68;;;0.90;92.90;;;;;;5022696;28;20224;-75
2022/04/02 10:57:44;;;;;;;22.40;10.50;;;0.70;92.80;;;;;;5027336;28;20182;-76
2022/04/02 11:00:11;;;;;;;25.08;11.77;;;0.80;93.10;;;;;;5007063;28;20653;-76
2022/04/02 11:02:45;;;;;;;23.25;9.75;;;0.90;93.20;;;;;;5028522;28;20182;-75
2022/04/02 11:05:18;;;;;;;20.00;11.13;;;1.00;93.30;;;;;;5025384;28;20178;-76
2022/04/02 11:07:49;;;;;;;21.88;10.98;;;1.10;92.60;;;;;;5019204;28;20174;-76
2022/04/02 11:10:17;;;;;;;21.50;9.95;;;1.00;92.10;;;;;;5020223;28;20174;-74
2022/04/02 11:12:48;;;;;;;18.52;9.85;;;0.80;92.00;;;;;;5023619;28;20185;-74
2022/04/02 11:15:19;;;;;;;21.55;11.38;;;0.80;92.50;;;;;;5022876;28;20190;-77
2022/04/02 11:17:50;;;;;;;19.50;10.65;;;1.00;93.00;;;;;;5022394;28;20185;-74
2022/04/02 11:20:34;;;;;;;23.30;11.30;;;1.00;92.90;;;;;;5014114;28;20193;-76
2022/04/02 11:23:20;;;;;;;21.85;10.85;;;0.90;92.50;;;;;;5023011;28;20734;-76
2022/04/02 11:25:54;;;;;;;18.77;9.95;;;0.80;92.70;;;;;;5022222;28;20225;-75
2022/04/02 11:28:24;;;;;;;20.67;10.68;;;0.90;93.20;;;;;;5019625;28;20268;-76
2022/04/02 11:30:53;;;;;;;23.60;10.88;;;1.00;93.50;;;;;;5003935;28;20178;-76
2022/04/02 11:33:24;;;;;;;22.23;11.40;;;1.00;93.40;;;;;;5007918;28;20214;-76
2022/04/02 11:35:55;;;;;;;31.17;13.07;;;1.10;93.30;;;;;;5018061;28;20240;-76
2022/04/02 11:38:24;;;;;;;25.75;11.93;;;1.30;93.30;;;;;;5017537;28;20190;-76
2022/04/02 11:41:21;;;;;;;22.60;12.05;;;1.50;92.90;;;;;;5000240;28;20170;-76
2022/04/02 11:43:48;;;;;;;24.08;10.63;;;1.50;92.60;;;;;;5011846;28;20261;-76
2022/04/02 11:46:16;;;;;;;26.38;12.15;;;1.50;92.30;;;;;;5000596;28;20185;-76
2022/04/02 11:48:59;;;;;;;23.45;12.90;;;1.40;92.60;;;;;;4993180;28;20190;-77
2022/04/02 11:51:30;;;;;;;23.67;11.75;;;1.10;92.90;;;;;;5010783;28;20266;-75
2022/04/02 11:54:10;;;;;;;24.55;12.52;;;1.00;93.40;;;;;;5006031;28;20304;-76
2022/04/02 11:56:37;;;;;;;21.85;11.50;;;0.90;94.00;;;;;;4989555;28;20181;-74
2022/04/02 11:59:08;;;;;;;23.65;11.35;;;1.00;94.30;;;;;;5010648;28;20190;-77
2022/04/02 12:01:50;;;;;;;25.45;12.60;;;0.80;94.20;;;;;;5003818;28;20201;-75
2022/04/02 12:04:22;;;;;;;23.75;12.05;;;0.80;94.60;;;;;;5007502;28;20206;-75
2022/04/02 12:06:49;;;;;;;23.45;12.85;;;0.90;95.10;;;;;;5004652;28;20227;-76
2022/04/02 12:09:23;;;;;;;25.15;12.85;;;1.00;95.10;;;;;;5005873;28;20221;-77
2022/04/02 12:11:58;;;;;;;28.58;13.70;;;1.10;94.90;;;;;;5011459;28;20186;-75
2022/04/02 12:14:39;;;;;;;27.92;13.80;;;0.90;94.50;;;;;;4993037;28;20287;-76
2022/04/02 12:17:11;;;;;;;29.65;13.45;;;0.80;95.10;;;;;;5010817;28;20635;-76
2022/04/02 12:19:53;;;;;;;28.50;13.77;;;0.70;95.60;;;;;;5017650;28;20196;-77
2022/04/02 12:22:35;;;;;;;32.88;15.88;;;0.80;95.80;;;;;;5010173;28;20209;-76
2022/04/02 12:25:04;;;;;;;28.15;14.70;;;0.80;95.90;;;;;;5011808;28;20584;-77
2022/04/02 12:27:33;;;;;;;27.67;14.05;;;0.60;95.20;;;;;;5011426;28;20193;-78
2022/04/02 12:30:01;;;;;;;27.05;14.00;;;0.80;95.20;;;;;;5006682;28;20175;-77
2022/04/02 12:32:41;;;;;;;27.80;14.10;;;1.00;95.20;;;;;;5008942;28;20564;-76
2022/04/02 12:35:10;;;;;;;31.33;15.30;;;1.10;94.70;;;;;;4989444;28;20264;-77
2022/04/02 12:37:43;;;;;;;30.73;14.70;;;1.00;94.10;;;;;;5011528;28;20273;-76
2022/04/02 12:40:15;;;;;;;28.00;14.57;;;0.90;94.40;;;;;;5007032;28;20192;-75
2022/04/02 12:42:42;;;;;;;32.97;16.63;;;0.90;94.70;;;;;;5005930;28;20182;-75
2022/04/02 12:45:20;;;;;;;33.95;16.52;;;0.90;94.90;;;;;;5011781;28;20205;-77
2022/04/02 12:48:09;;;;;;;30.75;15.77;;;0.80;95.10;;;;;;4993960;28;20185;-76
2022/04/02 12:50:48;;;;;;;28.70;14.88;;;0.70;95.20;;;;;;4999054;28;20178;-76
2022/04/02 12:53:26;;;;;;;33.10;15.35;;;0.70;95.20;;;;;;5011528;28;20224;-75
2022/04/02 12:55:53;;;;;;;30.67;16.48;;;0.80;94.80;;;;;;5007443;28;20783;-76
2022/04/02 12:58:28;;;;;;;31.90;16.90;;;0.90;95.00;;;;;;5009103;28;20221;-77
2022/04/02 13:00:57;;;;;;;32.55;15.10;;;1.00;95.20;;;;;;5010488;28;20193;-76